Time;durP1;ratioP1;P1;durP2;ratioP2;P2;SDS_P1;SDS_P2;PMS_P1;PMS_P2;Temp;Humidity;BMP_temperature;BMP_pressure;BME280_temperature;BME280_humidity;BME280_pressure;Samples;Min_cycle;Max_cycle;Signal;HPM_P1;HPM_P2
2022/11/02 00:01:58;;;;;;;0.20;0.20;;;;;;;;;;4083749;29;20499;-36
2022/11/02 00:03:59;;;;;;;0.43;0.25;;;;;;;;;;4067572;29;20206;-36
2022/11/02 00:06:00;;;;;;;0.40;0.20;;;;;;;;;;4084273;29;20130;-37
2022/11/02 00:08:01;;;;;;;0.38;0.30;;;;;;;;;;4096257;29;20055;-36
2022/11/02 00:10:03;;;;;;;0.32;0.22;;;;;;;;;;4067289;29;20464;-37
2022/11/02 00:12:05;;;;;;;0.25;0.17;;;;;;;;;;4084102;29;20107;-37
2022/11/02 00:14:06;;;;;;;0.55;0.40;;;;;;;;;;4083112;29;20088;-36
2022/11/02 00:16:10;;;;;;;0.20;0.15;;;;;;;;;;4084126;29;20103;-37
2022/11/02 00:18:12;;;;;;;0.80;0.30;;;;;;;;;;4070784;29;20459;-36
2022/11/02 00:20:15;;;;;;;0.32;0.22;;;;;;;;;;4084119;29;20110;-36
2022/11/02 00:22:16;;;;;;;0.32;0.10;;;;;;;;;;4084051;29;20106;-36
2022/11/02 00:24:18;;;;;;;0.93;0.20;;;;;;;;;;4083917;29;20479;-37
2022/11/02 00:26:19;;;;;;;0.22;0.10;;;;;;;;;;4081738;29;20052;-36
2022/11/02 00:28:20;;;;;;;0.38;0.30;;;;;;;;;;4073530;29;20115;-37
2022/11/02 00:30:22;;;;;;;1.05;0.30;;;;;;;;;;4084003;29;20063;-37
2022/11/02 00:32:24;;;;;;;0.25;0.15;;;;;;;;;;4066702;29;20056;-36
2022/11/02 00:34:26;;;;;;;0.30;0.30;;;;;;;;;;4083927;29;20127;-37
2022/11/02 00:36:28;;;;;;;0.22;0.20;;;;;;;;;;4082653;29;20091;-37
2022/11/02 00:38:30;;;;;;;0.40;0.20;;;;;;;;;;4066985;29;20059;-36
2022/11/02 00:40:32;;;;;;;0.45;0.20;;;;;;;;;;4083791;29;20055;-36
2022/11/02 00:42:33;;;;;;;0.98;0.30;;;;;;;;;;4068614;29;20476;-36
2022/11/02 00:44:35;;;;;;;0.22;0.20;;;;;;;;;;4080362;29;20072;-36
2022/11/02 00:46:36;;;;;;;0.50;0.20;;;;;;;;;;4073175;29;20070;-37
2022/11/02 00:48:38;;;;;;;0.65;0.22;;;;;;;;;;4082513;29;20464;-37
2022/11/02 00:50:40;;;;;;;0.30;0.20;;;;;;;;;;4066818;29;20097;-36
2022/11/02 00:52:41;;;;;;;0.50;0.20;;;;;;;;;;4070923;29;20052;-37
2022/11/02 00:54:43;;;;;;;0.68;0.30;;;;;;;;;;4066085;29;20512;-37
2022/11/02 00:56:44;;;;;;;0.85;0.30;;;;;;;;;;4082251;29;20447;-36
2022/11/02 00:58:46;;;;;;;0.50;0.28;;;;;;;;;;4094451;29;20070;-37
2022/11/02 01:00:47;;;;;;;0.70;0.35;;;;;;;;;;4083992;29;20058;-36
2022/11/02 01:02:48;;;;;;;0.22;0.20;;;;;;;;;;4081336;29;20099;-36
2022/11/02 01:04:50;;;;;;;0.40;0.30;;;;;;;;;;4083811;29;20059;-36
2022/11/02 01:06:54;;;;;;;0.82;0.30;;;;;;;;;;4070681;29;20060;-36
2022/11/02 01:08:55;;;;;;;0.30;0.28;;;;;;;;;;4050932;29;20064;-37
2022/11/02 01:11:11;;;;;;;0.20;0.20;;;;;;;;;;4083377;29;20055;-36
2022/11/02 01:13:12;;;;;;;0.20;0.20;;;;;;;;;;4083209;29;20048;-36
2022/11/02 01:15:14;;;;;;;0.22;0.20;;;;;;;;;;4066334;29;20056;-37
2022/11/02 01:17:16;;;;;;;0.30;0.22;;;;;;;;;;4049945;29;20504;-36
2022/11/02 01:19:17;;;;;;;0.38;0.20;;;;;;;;;;4083325;29;20059;-36
2022/11/02 01:21:18;;;;;;;0.20;0.20;;;;;;;;;;4074225;29;20103;-36
2022/11/02 01:23:21;;;;;;;0.30;0.20;;;;;;;;;;4079178;29;20056;-36
2022/11/02 01:25:22;;;;;;;0.30;0.22;;;;;;;;;;4081509;29;20558;-36
2022/11/02 01:27:25;;;;;;;0.55;0.10;;;;;;;;;;4082870;29;20119;-37
2022/11/02 01:29:27;;;;;;;0.30;0.28;;;;;;;;;;4083256;29;20087;-37
2022/11/02 01:31:28;;;;;;;0.22;0.20;;;;;;;;;;4082313;29;20495;-37
2022/11/02 01:33:30;;;;;;;0.60;0.20;;;;;;;;;;4081694;29;20052;-36
2022/11/02 01:35:31;;;;;;;0.20;0.20;;;;;;;;;;4083139;29;20055;-36
2022/11/02 01:37:34;;;;;;;0.35;0.20;;;;;;;;;;4066223;29;20393;-36
2022/11/02 01:39:35;;;;;;;0.17;0.17;;;;;;;;;;4082839;29;20645;-37
2022/11/02 01:41:37;;;;;;;0.45;0.20;;;;;;;;;;4081702;29;20467;-36
2022/11/02 01:43:43;;;;;;;0.30;0.22;;;;;;;;;;4077890;29;20048;-37
2022/11/02 01:45:45;;;;;;;0.10;0.10;;;;;;;;;;4081717;29;20060;-36
2022/11/02 01:47:47;;;;;;;0.30;0.20;;;;;;;;;;4065678;29;20060;-36
2022/11/02 01:50:11;;;;;;;0.57;0.40;;;;;;;;;;4067836;29;20460;-37
2022/11/02 01:52:18;;;;;;;0.68;0.30;;;;;;;;;;4082738;29;20056;-37
2022/11/02 01:54:23;;;;;;;0.60;0.30;;;;;;;;;;4071462;29;20056;-36
2022/11/02 01:56:29;;;;;;;0.40;0.32;;;;;;;;;;4064506;29;20060;-36
2022/11/02 01:58:33;;;;;;;0.60;0.20;;;;;;;;;;4086883;29;20485;-36
2022/11/02 02:00:37;;;;;;;0.30;0.22;;;;;;;;;;4072923;29;20055;-36
2022/11/02 02:02:46;;;;;;;0.25;0.20;;;;;;;;;;4081905;29;20055;-36
2022/11/02 02:04:52;;;;;;;0.20;0.10;;;;;;;;;;4065834;29;20056;-36
2022/11/02 02:06:54;;;;;;;0.63;0.20;;;;;;;;;;4080972;29;20123;-36
2022/11/02 02:08:58;;;;;;;1.38;0.30;;;;;;;;;;4071698;29;20096;-36
2022/11/02 02:11:02;;;;;;;0.75;0.20;;;;;;;;;;4078793;29;20063;-36
2022/11/02 02:13:04;;;;;;;0.10;0.10;;;;;;;;;;4061980;29;20048;-36
2022/11/02 02:15:06;;;;;;;0.20;0.20;;;;;;;;;;4072316;29;20507;-36
2022/11/02 02:17:27;;;;;;;0.50;0.30;;;;;;;;;;4065363;29;20052;-36
2022/11/02 02:19:41;;;;;;;0.47;0.22;;;;;;;;;;4080858;29;20056;-36
2022/11/02 02:22:02;;;;;;;0.30;0.20;;;;;;;;;;4074044;29;20086;-36
2022/11/02 02:24:18;;;;;;;0.15;0.15;;;;;;;;;;4091101;29;20534;-37
2022/11/02 02:26:22;;;;;;;0.52;0.40;;;;;;;;;;4082262;29;20107;-36
2022/11/02 02:28:51;;;;;;;0.20;0.15;;;;;;;;;;4081480;29;20412;-36
2022/11/02 02:31:10;;;;;;;0.30;0.30;;;;;;;;;;4073783;29;20056;-36
2022/11/02 02:33:19;;;;;;;0.25;0.17;;;;;;;;;;4095661;29;20467;-36
2022/11/02 02:35:37;;;;;;;0.40;0.20;;;;;;;;;;4086449;29;20063;-36
2022/11/02 02:37:50;;;;;;;0.50;0.30;;;;;;;;;;4089645;29;20065;-36
2022/11/02 02:40:03;;;;;;;0.80;0.30;;;;;;;;;;4095815;29;20055;-36
2022/11/02 02:42:38;;;;;;;0.20;0.20;;;;;;;;;;4086475;29;20055;-36
2022/11/02 02:44:43;;;;;;;0.15;0.15;;;;;;;;;;4070811;29;20063;-36
2022/11/02 02:46:51;;;;;;;0.40;0.20;;;;;;;;;;4070192;29;20092;-36
2022/11/02 02:48:55;;;;;;;0.68;0.30;;;;;;;;;;4082401;29;20056;-36
2022/11/02 02:51:01;;;;;;;0.10;0.10;;;;;;;;;;4070620;29;20055;-36
2022/11/02 02:53:04;;;;;;;0.30;0.20;;;;;;;;;;4086195;29;20416;-36
2022/11/02 02:55:06;;;;;;;0.15;0.10;;;;;;;;;;4070231;29;20064;-36
2022/11/02 02:57:12;;;;;;;0.60;0.30;;;;;;;;;;4070419;29;20388;-36
2022/11/02 02:59:22;;;;;;;0.28;0.20;;;;;;;;;;4086250;29;20582;-37
2022/11/02 03:01:24;;;;;;;0.35;0.30;;;;;;;;;;4085723;29;20059;-36
2022/11/02 03:03:27;;;;;;;0.25;0.20;;;;;;;;;;4069736;29;20052;-36
2022/11/02 03:05:36;;;;;;;0.88;0.20;;;;;;;;;;4070169;29;20051;-36
2022/11/02 03:07:41;;;;;;;0.32;0.13;;;;;;;;;;4085825;29;20056;-36
2022/11/02 03:10:16;;;;;;;0.20;0.20;;;;;;;;;;4072895;29;20060;-36
2022/11/02 03:12:26;;;;;;;0.25;0.25;;;;;;;;;;4064490;29;20048;-36
2022/11/02 03:14:47;;;;;;;0.20;0.20;;;;;;;;;;4070525;29;20056;-36
2022/11/02 03:17:08;;;;;;;0.32;0.30;;;;;;;;;;4085028;29;20091;-35
2022/11/02 03:19:16;;;;;;;0.32;0.20;;;;;;;;;;4070193;29;20420;-36
2022/11/02 03:21:27;;;;;;;0.10;0.10;;;;;;;;;;4086007;29;20052;-45
2022/11/02 03:23:36;;;;;;;0.10;0.10;;;;;;;;;;4087159;29;20814;-36
2022/11/02 03:26:05;;;;;;;0.55;0.20;;;;;;;;;;4087268;29;20122;-36
2022/11/02 03:28:15;;;;;;;0.20;0.20;;;;;;;;;;4085894;29;20059;-36
2022/11/02 03:30:18;;;;;;;0.17;0.17;;;;;;;;;;4070591;29;20063;-36
2022/11/02 03:32:25;;;;;;;0.30;0.30;;;;;;;;;;4085494;29;20131;-36
2022/11/02 03:34:43;;;;;;;0.47;0.20;;;;;;;;;;4069925;29;20056;-36
2022/11/02 03:36:47;;;;;;;0.38;0.30;;;;;;;;;;4085860;29;20094;-36
2022/11/02 03:38:54;;;;;;;0.20;0.20;;;;;;;;;;4061211;29;20055;-36
2022/11/02 03:40:55;;;;;;;0.35;0.30;;;;;;;;;;4095350;28;20284;-36
2022/11/02 03:42:58;;;;;;;0.10;0.10;;;;;;;;;;4076891;29;20052;-36
2022/11/02 03:45:05;;;;;;;0.10;0.10;;;;;;;;;;4042630;29;20444;-36
2022/11/02 03:47:10;;;;;;;0.10;0.10;;;;;;;;;;4067212;29;20112;-36
2022/11/02 03:49:14;;;;;;;1.00;0.30;;;;;;;;;;4085920;29;20055;-36
2022/11/02 03:51:18;;;;;;;0.40;0.30;;;;;;;;;;4079644;29;20243;-36
2022/11/02 03:53:31;;;;;;;0.20;0.20;;;;;;;;;;4084505;29;20051;-36
2022/11/02 03:55:36;;;;;;;0.45;0.20;;;;;;;;;;4094908;29;20130;-36
2022/11/02 03:57:49;;;;;;;0.20;0.20;;;;;;;;;;4052247;29;20060;-36
2022/11/02 04:00:05;;;;;;;0.47;0.20;;;;;;;;;;4067827;29;20052;-36
2022/11/02 04:02:16;;;;;;;0.30;0.10;;;;;;;;;;4089104;29;20701;-36
2022/11/02 04:04:18;;;;;;;0.60;0.25;;;;;;;;;;4067506;29;20052;-36
2022/11/02 04:06:20;;;;;;;0.20;0.20;;;;;;;;;;4089216;29;20055;-36
2022/11/02 04:08:28;;;;;;;0.30;0.20;;;;;;;;;;4058377;29;20064;-36
2022/11/02 04:10:34;;;;;;;0.13;0.13;;;;;;;;;;4082788;29;20131;-36
2022/11/02 04:14:55;;;;;;;0.20;0.20;;;;;;;;;;4084348;29;20086;-37
2022/11/02 04:19:26;;;;;;;0.30;0.30;;;;;;;;;;4079091;29;20059;-36
2022/11/02 04:21:28;;;;;;;0.20;0.20;;;;;;;;;;4090048;29;20106;-36
2022/11/02 04:25:53;;;;;;;0.47;0.30;;;;;;;;;;4073139;29;20107;-36
2022/11/02 04:28:08;;;;;;;0.30;0.30;;;;;;;;;;4084221;29;20103;-36
2022/11/02 04:30:22;;;;;;;0.13;0.13;;;;;;;;;;4082342;29;20055;-36
2022/11/02 04:34:48;;;;;;;0.20;0.20;;;;;;;;;;4087695;29;20059;-36
2022/11/02 04:36:49;;;;;;;0.28;0.13;;;;;;;;;;4068919;29;20123;-36
2022/11/02 04:38:51;;;;;;;0.20;0.20;;;;;;;;;;4084076;29;20194;-36
2022/11/02 04:43:35;;;;;;;0.40;0.30;;;;;;;;;;4054618;29;20060;-35
2022/11/02 04:45:37;;;;;;;0.20;0.20;;;;;;;;;;4082523;29;20491;-35
2022/11/02 04:47:38;;;;;;;0.40;0.20;;;;;;;;;;4074297;29;20058;-35
2022/11/02 04:49:40;;;;;;;0.52;0.25;;;;;;;;;;4090326;29;20118;-35
2022/11/02 04:51:45;;;;;;;0.43;0.20;;;;;;;;;;4052383;29;20668;-35
2022/11/02 04:53:47;;;;;;;0.30;0.30;;;;;;;;;;4082121;29;20076;-35
2022/11/02 04:55:49;;;;;;;0.30;0.28;;;;;;;;;;4074944;29;20439;-35
2022/11/02 04:57:51;;;;;;;0.30;0.17;;;;;;;;;;4066490;29;20056;-36
2022/11/02 04:59:52;;;;;;;0.40;0.20;;;;;;;;;;4083691;29;20103;-35
2022/11/02 05:01:53;;;;;;;0.20;0.20;;;;;;;;;;4082813;29;20115;-35
2022/11/02 05:03:56;;;;;;;0.30;0.30;;;;;;;;;;4082380;29;20626;-35
2022/11/02 05:05:59;;;;;;;0.25;0.10;;;;;;;;;;4082406;29;20103;-36
2022/11/02 05:08:00;;;;;;;0.50;0.30;;;;;;;;;;4068882;29;20056;-36
2022/11/02 05:10:02;;;;;;;0.38;0.30;;;;;;;;;;4082163;29;20143;-35
2022/11/02 05:12:05;;;;;;;0.10;0.10;;;;;;;;;;4060016;29;20059;-36
2022/11/02 05:14:07;;;;;;;0.43;0.30;;;;;;;;;;4066350;29;20052;-35
2022/11/02 05:16:11;;;;;;;0.20;0.20;;;;;;;;;;4087566;29;20055;-35
2022/11/02 05:18:13;;;;;;;0.10;0.10;;;;;;;;;;4065793;29;20502;-35
2022/11/02 05:20:14;;;;;;;0.20;0.20;;;;;;;;;;4082420;29;20051;-36
2022/11/02 05:22:16;;;;;;;0.20;0.20;;;;;;;;;;4081863;29;20130;-36
2022/11/02 05:24:17;;;;;;;0.30;0.20;;;;;;;;;;4069885;29;20056;-36
2022/11/02 05:26:19;;;;;;;0.65;0.30;;;;;;;;;;4084478;29;20122;-36
2022/11/02 05:28:23;;;;;;;0.68;0.30;;;;;;;;;;4092109;29;20169;-36
2022/11/02 05:30:24;;;;;;;0.10;0.10;;;;;;;;;;4066363;29;20067;-37
2022/11/02 05:32:26;;;;;;;0.40;0.30;;;;;;;;;;4065692;29;20635;-37
2022/11/02 05:34:29;;;;;;;0.30;0.20;;;;;;;;;;4081378;29;20583;-36
2022/11/02 05:36:30;;;;;;;0.88;0.30;;;;;;;;;;4081688;29;20058;-37
2022/11/02 05:38:33;;;;;;;0.17;0.17;;;;;;;;;;4073724;29;20056;-36
2022/11/02 05:40:39;;;;;;;0.50;0.30;;;;;;;;;;4081738;29;20059;-36
2022/11/02 05:42:43;;;;;;;0.85;0.28;;;;;;;;;;4082181;29;20060;-36
2022/11/02 05:44:44;;;;;;;0.28;0.20;;;;;;;;;;4082990;29;20055;-36
2022/11/02 05:46:45;;;;;;;0.20;0.20;;;;;;;;;;4082373;29;20059;-36
2022/11/02 05:48:47;;;;;;;0.35;0.30;;;;;;;;;;4082820;29;20056;-36
2022/11/02 05:50:48;;;;;;;0.47;0.30;;;;;;;;;;4081593;29;20051;-37
2022/11/02 05:52:49;;;;;;;0.38;0.30;;;;;;;;;;4065795;29;20612;-36
2022/11/02 05:54:50;;;;;;;0.85;0.30;;;;;;;;;;4059029;29;20089;-36
2022/11/02 05:56:52;;;;;;;0.30;0.20;;;;;;;;;;4076785;29;20056;-36
2022/11/02 05:58:54;;;;;;;0.32;0.30;;;;;;;;;;4068867;29;20084;-37
2022/11/02 06:00:59;;;;;;;0.50;0.50;;;;;;;;;;4080158;29;20052;-36
2022/11/02 06:03:01;;;;;;;0.32;0.30;;;;;;;;;;4079928;29;20072;-37
2022/11/02 06:05:02;;;;;;;0.30;0.30;;;;;;;;;;4080195;29;20168;-36
2022/11/02 06:07:04;;;;;;;0.50;0.30;;;;;;;;;;4091955;29;20522;-36
2022/11/02 06:09:05;;;;;;;0.40;0.22;;;;;;;;;;4080903;29;20119;-36
2022/11/02 06:11:08;;;;;;;0.65;0.20;;;;;;;;;;4080781;29;20074;-36
2022/11/02 06:13:09;;;;;;;0.50;0.38;;;;;;;;;;4078953;29;20122;-37
2022/11/02 06:15:10;;;;;;;1.00;0.30;;;;;;;;;;4080628;29;20059;-36
2022/11/02 06:17:12;;;;;;;0.60;0.45;;;;;;;;;;4062623;29;20092;-36
2022/11/02 06:19:13;;;;;;;0.40;0.40;;;;;;;;;;4079629;29;20094;-36
2022/11/02 06:21:14;;;;;;;0.75;0.43;;;;;;;;;;4080600;29;20420;-37
2022/11/02 06:23:17;;;;;;;0.70;0.38;;;;;;;;;;4079220;29;20055;-37
2022/11/02 06:25:18;;;;;;;0.60;0.40;;;;;;;;;;4081233;29;20438;-36
2022/11/02 06:27:19;;;;;;;0.68;0.47;;;;;;;;;;4092050;29;20056;-36
2022/11/02 06:29:20;;;;;;;1.17;0.47;;;;;;;;;;4072120;29;20088;-36
2022/11/02 06:31:22;;;;;;;0.30;0.30;;;;;;;;;;4074941;29;20059;-36
2022/11/02 06:33:23;;;;;;;0.50;0.40;;;;;;;;;;4066731;29;20064;-39
2022/11/02 06:35:25;;;;;;;0.57;0.55;;;;;;;;;;4061972;29;20060;-36
2022/11/02 06:37:26;;;;;;;0.88;0.50;;;;;;;;;;4075739;29;20199;-36
2022/11/02 06:39:28;;;;;;;1.35;0.47;;;;;;;;;;4079654;29;20063;-36
2022/11/02 06:41:29;;;;;;;0.40;0.40;;;;;;;;;;4079721;29;20063;-36
2022/11/02 06:43:30;;;;;;;0.45;0.43;;;;;;;;;;4079719;29;20047;-36
2022/11/02 06:45:31;;;;;;;0.75;0.50;;;;;;;;;;4063170;29;20404;-36
2022/11/02 06:47:35;;;;;;;0.80;0.50;;;;;;;;;;4079285;29;20117;-36
2022/11/02 06:49:37;;;;;;;0.68;0.50;;;;;;;;;;4081848;29;20063;-36
2022/11/02 06:51:38;;;;;;;1.13;0.50;;;;;;;;;;4079089;29;20047;-36
2022/11/02 06:53:39;;;;;;;0.77;0.50;;;;;;;;;;4079273;29;20052;-37
2022/11/02 06:55:40;;;;;;;2.60;0.50;;;;;;;;;;4079693;29;20095;-36
2022/11/02 06:57:42;;;;;;;1.10;0.60;;;;;;;;;;4079017;29;20062;-36
2022/11/02 06:59:44;;;;;;;1.65;0.60;;;;;;;;;;4079318;29;20545;-37
2022/11/02 07:01:45;;;;;;;0.80;0.68;;;;;;;;;;4081443;29;20184;-37
2022/11/02 07:03:47;;;;;;;1.05;0.70;;;;;;;;;;4080505;29;20047;-37
2022/11/02 07:05:50;;;;;;;1.77;0.90;;;;;;;;;;4077383;29;20060;-36
2022/11/02 07:07:52;;;;;;;1.05;0.75;;;;;;;;;;4077877;29;20458;-37
2022/11/02 07:09:53;;;;;;;1.13;0.57;;;;;;;;;;4079079;29;20059;-36
2022/11/02 07:11:55;;;;;;;0.90;0.50;;;;;;;;;;4078053;29;20522;-37
2022/11/02 07:13:56;;;;;;;1.42;0.68;;;;;;;;;;4060808;29;20064;-36
2022/11/02 07:15:57;;;;;;;1.00;0.70;;;;;;;;;;4077108;29;20084;-36
2022/11/02 07:17:59;;;;;;;1.48;0.88;;;;;;;;;;4077809;29;20067;-36
2022/11/02 07:20:00;;;;;;;1.00;0.70;;;;;;;;;;4082858;29;20550;-36
2022/11/02 07:22:02;;;;;;;0.70;0.60;;;;;;;;;;4080855;29;20122;-36
2022/11/02 07:24:03;;;;;;;1.08;0.70;;;;;;;;;;4050459;29;20085;-38
2022/11/02 07:26:05;;;;;;;0.77;0.40;;;;;;;;;;4074085;29;20519;-37
2022/11/02 07:28:06;;;;;;;1.23;0.68;;;;;;;;;;4077574;29;20111;-37
2022/11/02 07:30:08;;;;;;;1.27;0.80;;;;;;;;;;4075860;29;20155;-38
2022/11/02 07:32:09;;;;;;;1.20;0.82;;;;;;;;;;4075702;29;20052;-37
2022/11/02 07:34:11;;;;;;;1.58;0.80;;;;;;;;;;4078112;29;20122;-37
2022/11/02 07:36:12;;;;;;;0.93;0.73;;;;;;;;;;4079489;29;20062;-37
2022/11/02 07:38:14;;;;;;;6.97;1.27;;;;;;;;;;4078345;29;20479;-37
2022/11/02 07:40:15;;;;;;;1.33;0.60;;;;;;;;;;4080096;29;20530;-37
2022/11/02 07:42:16;;;;;;;1.42;0.80;;;;;;;;;;4078068;29;20155;-37
2022/11/02 07:44:23;;;;;;;0.95;0.70;;;;;;;;;;4066860;29;20056;-37
2022/11/02 07:46:27;;;;;;;1.23;0.63;;;;;;;;;;4075083;29;20115;-37
2022/11/02 07:48:29;;;;;;;1.33;0.80;;;;;;;;;;4075767;29;20060;-37
2022/11/02 07:50:30;;;;;;;0.85;0.60;;;;;;;;;;4077151;29;20534;-37
2022/11/02 07:52:31;;;;;;;1.13;0.70;;;;;;;;;;4078382;29;20056;-37
2022/11/02 07:54:32;;;;;;;0.90;0.73;;;;;;;;;;4073622;29;20048;-37
2022/11/02 07:56:33;;;;;;;1.05;0.80;;;;;;;;;;4068942;29;20879;-38
2022/11/02 07:58:35;;;;;;;1.77;0.80;;;;;;;;;;4072803;29;20441;-37
2022/11/02 08:00:39;;;;;;;2.20;0.70;;;;;;;;;;4071932;29;20067;-37
2022/11/02 08:02:41;;;;;;;1.65;0.75;;;;;;;;;;4074190;29;20059;-37
2022/11/02 08:04:42;;;;;;;0.90;0.70;;;;;;;;;;4081728;29;20103;-37
2022/11/02 08:06:44;;;;;;;0.88;0.63;;;;;;;;;;4081914;29;20083;-37
2022/11/02 08:08:45;;;;;;;1.05;0.55;;;;;;;;;;4077712;29;20431;-37
2022/11/02 08:10:49;;;;;;;0.75;0.50;;;;;;;;;;4074104;29;20341;-37
2022/11/02 08:12:51;;;;;;;1.05;0.60;;;;;;;;;;4075595;29;20530;-37
2022/11/02 08:14:52;;;;;;;1.20;0.50;;;;;;;;;;4083874;29;20056;-37
2022/11/02 08:16:54;;;;;;;1.77;0.77;;;;;;;;;;4085544;29;20433;-38
2022/11/02 08:18:57;;;;;;;1.00;0.73;;;;;;;;;;4080070;29;20141;-37
2022/11/02 08:20:59;;;;;;;1.10;0.70;;;;;;;;;;4074178;29;20066;-37
2022/11/02 08:23:01;;;;;;;1.45;0.90;;;;;;;;;;4075328;29;20060;-36
2022/11/02 08:25:02;;;;;;;2.63;1.17;;;;;;;;;;4078397;29;20059;-37
2022/11/02 08:27:03;;;;;;;1.58;0.52;;;;;;;;;;4080772;29;20499;-37
2022/11/02 08:29:05;;;;;;;1.52;0.90;;;;;;;;;;4078871;28;20059;-38
2022/11/02 08:31:11;;;;;;;0.77;0.63;;;;;;;;;;4079251;29;20063;-37
2022/11/02 08:33:14;;;;;;;1.20;0.98;;;;;;;;;;4077365;29;20576;-38
2022/11/02 08:35:15;;;;;;;1.10;0.50;;;;;;;;;;4079911;29;20067;-37
2022/11/02 08:37:16;;;;;;;0.98;0.50;;;;;;;;;;4080303;29;20530;-37
2022/11/02 08:39:18;;;;;;;1.73;0.68;;;;;;;;;;4075495;29;20055;-37
2022/11/02 08:41:19;;;;;;;1.35;0.70;;;;;;;;;;4075319;29;20062;-37
2022/11/02 08:43:20;;;;;;;2.20;0.85;;;;;;;;;;4075174;29;20102;-38
2022/11/02 08:45:21;;;;;;;2.28;0.70;;;;;;;;;;4079411;29;21339;-37
2022/11/02 08:47:23;;;;;;;2.08;0.70;;;;;;;;;;4074081;29;20110;-37
2022/11/02 08:49:24;;;;;;;3.53;0.82;;;;;;;;;;4071273;29;20059;-37
2022/11/02 08:51:25;;;;;;;1.40;0.70;;;;;;;;;;4065585;29;20494;-37
2022/11/02 08:53:27;;;;;;;1.10;0.95;;;;;;;;;;4065984;29;20060;-38
2022/11/02 08:55:28;;;;;;;3.13;0.70;;;;;;;;;;4071374;29;20051;-37
2022/11/02 08:57:29;;;;;;;3.03;0.70;;;;;;;;;;4072369;29;20059;-37
2022/11/02 08:59:31;;;;;;;1.23;0.77;;;;;;;;;;4061404;29;20147;-37
2022/11/02 09:01:32;;;;;;;1.10;0.85;;;;;;;;;;4069623;29;20076;-37
2022/11/02 09:03:34;;;;;;;1.17;0.85;;;;;;;;;;4072164;29;20063;-38
2022/11/02 09:05:38;;;;;;;1.77;0.90;;;;;;;;;;4073157;29;20059;-37
2022/11/02 09:07:39;;;;;;;1.90;0.93;;;;;;;;;;4069076;29;20467;-37
2022/11/02 09:09:41;;;;;;;1.13;0.93;;;;;;;;;;4072002;29;20538;-37
2022/11/02 09:11:42;;;;;;;1.33;0.77;;;;;;;;;;4074539;29;20083;-37
2022/11/02 09:13:43;;;;;;;1.15;0.70;;;;;;;;;;4068584;29;20110;-36
2022/11/02 09:15:48;;;;;;;1.55;0.77;;;;;;;;;;4070068;29;20055;-37
2022/11/02 09:17:50;;;;;;;1.13;1.00;;;;;;;;;;4074709;29;20055;-36
2022/11/02 09:19:51;;;;;;;0.70;0.63;;;;;;;;;;4074946;29;20170;-37
2022/11/02 09:21:53;;;;;;;0.98;0.80;;;;;;;;;;4066218;29;20106;-38
2022/11/02 09:23:54;;;;;;;0.93;0.65;;;;;;;;;;4067603;29;20062;-37
2022/11/02 09:25:56;;;;;;;1.30;0.63;;;;;;;;;;4071535;29;20059;-38
2022/11/02 09:27:57;;;;;;;1.25;0.60;;;;;;;;;;4069417;29;20772;-39
2022/11/02 09:29:59;;;;;;;1.90;0.82;;;;;;;;;;4063402;29;20059;-37
2022/11/02 09:32:00;;;;;;;1.92;0.80;;;;;;;;;;4061199;29;20852;-38
2022/11/02 09:34:01;;;;;;;0.80;0.60;;;;;;;;;;4067728;29;20572;-37
2022/11/02 09:36:04;;;;;;;2.83;0.80;;;;;;;;;;4066426;29;20071;-38
2022/11/02 09:38:05;;;;;;;1.27;0.75;;;;;;;;;;4068191;29;20059;-37
2022/11/02 09:40:08;;;;;;;0.70;0.68;;;;;;;;;;4072224;28;20059;-38
2022/11/02 09:42:20;;;;;;;1.45;0.70;;;;;;;;;;4069708;29;20059;-37
2022/11/02 09:44:27;;;;;;;1.10;0.80;;;;;;;;;;4069220;29;20835;-37
2022/11/02 09:46:42;;;;;;;0.90;0.70;;;;;;;;;;4066993;29;20055;-38
2022/11/02 09:48:51;;;;;;;2.97;0.80;;;;;;;;;;4067252;29;20059;-39
2022/11/02 09:51:02;;;;;;;1.50;0.70;;;;;;;;;;4068787;29;20059;-38
2022/11/02 09:53:06;;;;;;;1.08;0.70;;;;;;;;;;4069869;29;20067;-38
2022/11/02 09:55:14;;;;;;;0.98;0.68;;;;;;;;;;4071131;29;20179;-38
2022/11/02 09:57:20;;;;;;;1.08;0.70;;;;;;;;;;4065434;29;20055;-38
2022/11/02 09:59:24;;;;;;;0.70;0.60;;;;;;;;;;4049285;29;21006;-38
2022/11/02 10:01:38;;;;;;;1.80;0.70;;;;;;;;;;4048902;29;20060;-39
2022/11/02 10:03:57;;;;;;;1.20;0.47;;;;;;;;;;4044457;29;20115;-38
2022/11/02 10:06:14;;;;;;;0.77;0.30;;;;;;;;;;4062210;29;20099;-38
2022/11/02 10:08:47;;;;;;;0.85;0.60;;;;;;;;;;4044933;29;20055;-37
2022/11/02 10:11:37;;;;;;;0.88;0.70;;;;;;;;;;4052839;29;20105;-38
2022/11/02 10:13:52;;;;;;;1.15;0.65;;;;;;;;;;4031254;29;20067;-37
2022/11/02 10:15:56;;;;;;;0.85;0.70;;;;;;;;;;4045263;29;20060;-36
2022/11/02 10:17:59;;;;;;;0.93;0.70;;;;;;;;;;4048143;29;20118;-38
2022/11/02 10:20:05;;;;;;;3.58;0.80;;;;;;;;;;4053332;29;20491;-37
2022/11/02 10:22:11;;;;;;;1.58;0.60;;;;;;;;;;4048299;29;20059;-37
2022/11/02 10:24:25;;;;;;;1.27;0.60;;;;;;;;;;4028308;29;20060;-36
2022/11/02 10:26:35;;;;;;;1.90;0.68;;;;;;;;;;4065936;29;20056;-37
2022/11/02 10:28:38;;;;;;;;;;;;;;;;;;4064371;29;20059;-37
2022/11/02 10:30:39;;;;;;;2.10;0.52;;;;;;;;;;4035032;29;20027;-36
2022/11/02 10:32:42;;;;;;;1.88;0.60;;;;;;;;;;4049036;29;20059;-36
2022/11/02 10:34:44;;;;;;;1.13;0.50;;;;;;;;;;4047356;29;21797;-36
2022/11/02 10:37:07;;;;;;;1.27;0.60;;;;;;;;;;4045637;29;20633;-37
2022/11/02 10:39:18;;;;;;;1.10;0.70;;;;;;;;;;4045847;29;20535;-37
2022/11/02 10:41:19;;;;;;;1.90;0.70;;;;;;;;;;4048904;29;20059;-37
2022/11/02 10:43:51;;;;;;;1.27;0.80;;;;;;;;;;4055453;29;20059;-37
2022/11/02 10:46:05;;;;;;;2.25;0.70;;;;;;;;;;4047299;29;20056;-36
2022/11/02 10:48:32;;;;;;;1.38;0.73;;;;;;;;;;4046164;29;21421;-38
2022/11/02 10:50:46;;;;;;;1.02;0.70;;;;;;;;;;4042289;29;20583;-37
2022/11/02 10:52:47;;;;;;;1.17;0.68;;;;;;;;;;4053209;29;20059;-38
2022/11/02 10:54:50;;;;;;;1.23;0.65;;;;;;;;;;4048419;29;20111;-37
2022/11/02 10:56:51;;;;;;;0.90;0.70;;;;;;;;;;4051569;29;20071;-37
2022/11/02 10:58:59;;;;;;;0.90;0.73;;;;;;;;;;4065869;29;20511;-37
2022/11/02 11:01:09;;;;;;;1.17;0.57;;;;;;;;;;4056253;29;20100;-38
2022/11/02 11:03:15;;;;;;;0.80;0.52;;;;;;;;;;4051500;29;20522;-37
2022/11/02 11:05:18;;;;;;;1.23;1.02;;;;;;;;;;4056538;29;20067;-37
2022/11/02 11:07:25;;;;;;;1.08;0.70;;;;;;;;;;4054701;29;20480;-37
2022/11/02 11:09:47;;;;;;;0.80;0.70;;;;;;;;;;4045465;29;20061;-38
2022/11/02 11:12:03;;;;;;;1.05;0.75;;;;;;;;;;4024706;29;20108;-37
2022/11/02 11:14:20;;;;;;;1.85;0.73;;;;;;;;;;4035480;29;20108;-37
2022/11/02 11:16:36;;;;;;;1.65;0.95;;;;;;;;;;4047223;29;20059;-38
2022/11/02 11:18:38;;;;;;;1.23;0.82;;;;;;;;;;4034679;29;20535;-37
2022/11/02 11:20:41;;;;;;;1.25;0.80;;;;;;;;;;4048742;29;20111;-37
2022/11/02 11:22:42;;;;;;;1.88;0.90;;;;;;;;;;4052664;29;20060;-36
2022/11/02 11:24:44;;;;;;;2.20;0.90;;;;;;;;;;4046827;29;20052;-36
2022/11/02 11:26:45;;;;;;;0.98;0.80;;;;;;;;;;4053535;29;21022;-38
2022/11/02 11:28:54;;;;;;;1.10;0.70;;;;;;;;;;4045483;29;20059;-37
2022/11/02 11:31:05;;;;;;;1.02;0.77;;;;;;;;;;4048110;29;20083;-38
2022/11/02 11:33:06;;;;;;;0.82;0.52;;;;;;;;;;4031425;29;20576;-38
2022/11/02 11:35:14;;;;;;;0.85;0.80;;;;;;;;;;4050357;29;20195;-37
2022/11/02 11:37:16;;;;;;;2.00;1.00;;;;;;;;;;4049743;29;20088;-36
2022/11/02 11:39:28;;;;;;;2.05;0.90;;;;;;;;;;4058989;29;20063;-37
2022/11/02 11:41:31;;;;;;;2.65;1.00;;;;;;;;;;4060919;29;20111;-37
2022/11/02 11:43:36;;;;;;;1.08;0.90;;;;;;;;;;4061555;29;20468;-36
2022/11/02 11:45:37;;;;;;;1.52;0.80;;;;;;;;;;4058153;29;20063;-37
2022/11/02 11:47:40;;;;;;;2.28;0.93;;;;;;;;;;4046837;29;20059;-37
2022/11/02 11:49:47;;;;;;;1.00;0.90;;;;;;;;;;4030133;29;20166;-37
2022/11/02 11:51:50;;;;;;;2.08;0.95;;;;;;;;;;4043355;29;21425;-36
2022/11/02 11:54:13;;;;;;;0.93;0.73;;;;;;;;;;4026537;29;20258;-37
2022/11/02 11:56:24;;;;;;;1.33;0.95;;;;;;;;;;4054900;29;20060;-38
2022/11/02 11:58:33;;;;;;;1.60;0.80;;;;;;;;;;4022634;29;20064;-37
2022/11/02 12:00:34;;;;;;;1.70;0.77;;;;;;;;;;4049742;29;20063;-36
2022/11/02 12:02:36;;;;;;;3.10;0.70;;;;;;;;;;4058752;29;20068;-37
2022/11/02 12:04:37;;;;;;;1.65;0.80;;;;;;;;;;4070360;29;20056;-38
2022/11/02 12:07:07;;;;;;;0.93;0.68;;;;;;;;;;4054531;29;20108;-36
2022/11/02 12:09:21;;;;;;;0.82;0.70;;;;;;;;;;4073266;29;20066;-37
2022/11/02 12:11:27;;;;;;;1.08;0.80;;;;;;;;;;4068692;29;20083;-37
2022/11/02 12:13:49;;;;;;;1.20;0.88;;;;;;;;;;4070766;29;20107;-37
2022/11/02 12:16:07;;;;;;;2.15;0.57;;;;;;;;;;4072991;29;20070;-36
2022/11/02 12:18:22;;;;;;;1.58;0.82;;;;;;;;;;4050760;29;20055;-37
2022/11/02 12:20:38;;;;;;;0.60;0.52;;;;;;;;;;4072819;29;21363;-36
2022/11/02 12:23:00;;;;;;;1.35;0.70;;;;;;;;;;4061666;29;20064;-37
2022/11/02 12:25:30;;;;;;;1.38;0.77;;;;;;;;;;4069962;29;20074;-37
2022/11/02 12:27:33;;;;;;;1.42;0.80;;;;;;;;;;4052481;29;20063;-37
2022/11/02 12:29:47;;;;;;;0.75;0.47;;;;;;;;;;4069685;29;20063;-36
2022/11/02 12:32:01;;;;;;;1.80;0.90;;;;;;;;;;4065203;29;20213;-37
2022/11/02 12:34:27;;;;;;;1.38;0.75;;;;;;;;;;4066499;29;20170;-37
2022/11/02 12:36:52;;;;;;;1.48;0.60;;;;;;;;;;4067090;29;21995;-37
2022/11/02 12:39:15;;;;;;;1.77;0.75;;;;;;;;;;4064525;29;20052;-37
2022/11/02 12:41:54;;;;;;;2.47;0.82;;;;;;;;;;4053572;29;20460;-38
2022/11/02 12:44:11;;;;;;;1.25;0.75;;;;;;;;;;4070489;29;20127;-36
2022/11/02 12:46:18;;;;;;;2.65;0.73;;;;;;;;;;4065702;29;20577;-37